createdAt,value
2023-04-01T00:01:48.008Z,98773.92
2023-04-01T00:04:14.740Z,98773.88
2023-04-01T00:06:41.724Z,98779.23
2023-04-01T00:09:08.491Z,98776.02
2023-04-01T00:11:35.568Z,98781.14
2023-04-01T00:14:02.217Z,98777.76
2023-04-01T00:16:28.762Z,98776.27
2023-04-01T00:18:55.426Z,98776.90
2023-04-01T00:21:23.401Z,98774.27
2023-04-01T00:23:53.249Z,98773.17
2023-04-01T00:26:22.140Z,98773.23
2023-04-01T00:28:49.651Z,98774.07
2023-04-01T00:31:16.439Z,98774.37
2023-04-01T00:33:43.571Z,98771.73
2023-04-01T00:36:16.749Z,98774.06
2023-04-01T00:38:44.296Z,98771.14
2023-04-01T00:41:15.438Z,98773.23
2023-04-01T00:43:44.046Z,98771.95
2023-04-01T00:46:10.670Z,98772.77
2023-04-01T00:48:40.894Z,98773.04
2023-04-01T00:51:16.800Z,98772.65
2023-04-01T00:53:47.272Z,98771.77
2023-04-01T00:56:33.401Z,98777.45
2023-04-01T00:59:09.526Z,98778.80
2023-04-01T01:01:37.050Z,98777.52
2023-04-01T01:04:04.630Z,98781.84
2023-04-01T01:06:57.835Z,98778.67
2023-04-01T01:09:27.485Z,98777.54
2023-04-01T01:12:19.604Z,98779.18
2023-04-01T01:14:58.478Z,98779.23
2023-04-01T01:17:56.633Z,98774.73
2023-04-01T01:20:29.369Z,98773.23
2023-04-01T01:22:59.032Z,98773.40
2023-04-01T01:25:57.737Z,98774.20
2023-04-01T01:28:31.450Z,98772.69
2023-04-01T01:31:22.076Z,98772.63
2023-04-01T01:34:12.498Z,98777.25
2023-04-01T01:36:43.640Z,98781.30
2023-04-01T01:39:14.357Z,98778.25
2023-04-01T01:41:44.070Z,98778.17
2023-04-01T01:44:14.334Z,98780.31
2023-04-01T01:46:43.764Z,98773.31
2023-04-01T01:49:14.327Z,98774.57
2023-04-01T01:51:44.235Z,98777.34
2023-04-01T01:54:15.754Z,98780.45
2023-04-01T01:56:46.227Z,98780.81
2023-04-01T01:59:15.865Z,98781.10
2023-04-01T02:01:46.581Z,98779.88
2023-04-01T02:04:16.474Z,98781.69
2023-04-01T02:06:53.870Z,98780.30
2023-04-01T02:09:21.432Z,98782.73
2023-04-01T02:11:57.225Z,98783.59
2023-04-01T02:14:27.805Z,98782.00
2023-04-01T02:17:09.826Z,98782.37
2023-04-01T02:20:01.354Z,98781.06
2023-04-01T02:22:32.864Z,98783.75
2023-04-01T02:25:03.863Z,98785.86
2023-04-01T02:27:31.467Z,98785.02
2023-04-01T02:29:59.146Z,98785.66
2023-04-01T02:32:28.176Z,98789.98
2023-04-01T02:34:55.609Z,98787.23
2023-04-01T02:37:22.675Z,98793.38
2023-04-01T02:39:49.218Z,98793.51
2023-04-01T02:42:16.178Z,98788.55
2023-04-01T02:44:42.844Z,98789.85
2023-04-01T02:47:09.461Z,98793.39
2023-04-01T02:49:36.125Z,98793.52
2023-04-01T02:52:02.839Z,98795.09
2023-04-01T02:54:29.473Z,98797.89
2023-04-01T02:56:56.028Z,98798.83
2023-04-01T02:59:22.598Z,98794.64
2023-04-01T03:01:49.211Z,98797.45
2023-04-01T03:04:15.922Z,98801.27
2023-04-01T03:06:42.519Z,98800.43
2023-04-01T03:09:10.033Z,98800.27
2023-04-01T03:11:36.694Z,98800.67
2023-04-01T03:14:03.337Z,98800.52
2023-04-01T03:16:30.015Z,98800.27
2023-04-01T03:18:59.971Z,98795.27
2023-04-01T03:21:26.958Z,98796.64
2023-04-01T03:23:53.471Z,98798.20
2023-04-01T03:26:20.149Z,98798.41
2023-04-01T03:28:46.808Z,98800.17
2023-04-01T03:31:13.574Z,98800.36
2023-04-01T03:33:40.965Z,98800.34
2023-04-01T03:36:08.346Z,98800.64
2023-04-01T03:38:36.170Z,98799.33
2023-04-01T03:41:03.529Z,98804.30
2023-04-01T03:43:30.486Z,98805.06
2023-04-01T03:45:58.957Z,98804.50
2023-04-01T03:48:26.970Z,98806.46
2023-04-01T03:50:53.785Z,98807.69
2023-04-01T03:53:20.834Z,98807.86
2023-04-01T03:55:47.862Z,98807.30
2023-04-01T03:58:15.010Z,98808.89
2023-04-01T04:00:41.693Z,98807.67
2023-04-01T04:03:08.556Z,98812.08
2023-04-01T04:05:35.860Z,98810.02
2023-04-01T04:08:03.203Z,98810.59
2023-04-01T04:10:30.275Z,98811.61
2023-04-01T04:12:57.404Z,98814.63
2023-04-01T04:15:24.285Z,98817.64
2023-04-01T04:17:51.254Z,98813.77
2023-04-01T04:20:18.271Z,98817.80
2023-04-01T04:22:44.831Z,98817.64
2023-04-01T04:25:14.534Z,98818.08
2023-04-01T04:27:41.446Z,98815.48
2023-04-01T04:30:09.401Z,98820.97
2023-04-01T04:32:36.362Z,98818.20
2023-04-01T04:35:03.061Z,98818.15
2023-04-01T04:37:29.773Z,98821.86
2023-04-01T04:39:56.389Z,98823.19
2023-04-01T04:42:22.998Z,98824.52
2023-04-01T04:44:49.632Z,98828.22
2023-04-01T04:47:16.462Z,98825.77
2023-04-01T04:49:43.097Z,98827.80
2023-04-01T04:52:09.917Z,98826.70
2023-04-01T04:54:36.556Z,98829.47
2023-04-01T04:57:03.229Z,98833.59
2023-04-01T04:59:30.120Z,98835.79
2023-04-01T05:01:56.754Z,98836.48
2023-04-01T05:04:23.861Z,98841.13
2023-04-01T05:06:50.488Z,98838.38
2023-04-01T05:09:17.142Z,98841.92
2023-04-01T05:11:44.070Z,98843.48
2023-04-01T05:14:17.331Z,98845.43
2023-04-01T05:16:44.337Z,98850.15
2023-04-01T05:19:11.009Z,98844.81
2023-04-01T05:21:37.883Z,98848.32
2023-04-01T05:24:08.485Z,98850.03
2023-04-01T05:26:35.927Z,98849.46
2023-04-01T05:29:02.477Z,98849.05
2023-04-01T05:31:29.257Z,98850.76
2023-04-01T05:33:57.117Z,98854.63
2023-04-01T05:36:23.794Z,98855.30
2023-04-01T05:38:51.611Z,98858.67
2023-04-01T05:41:18.076Z,98856.05
2023-04-01T05:43:44.662Z,98856.95
2023-04-01T05:46:11.610Z,98857.41
2023-04-01T05:48:38.246Z,98857.98
2023-04-01T05:51:05.261Z,98861.23
2023-04-01T05:53:32.779Z,98862.52
2023-04-01T05:56:04.352Z,98866.20
2023-04-01T05:58:51.805Z,98863.01
2023-04-01T06:01:19.765Z,98866.69
2023-04-01T06:03:46.516Z,98868.09
2023-04-01T06:06:24.110Z,98866.44
2023-04-01T06:08:51.148Z,98869.86
2023-04-01T06:11:29.168Z,98868.83
2023-04-01T06:14:11.905Z,98873.58
2023-04-01T06:16:58.752Z,98871.18
2023-04-01T06:19:42.421Z,98873.54
2023-04-01T06:22:23.463Z,98877.10
2023-04-01T06:25:13.260Z,98880.27
2023-04-01T06:28:12.248Z,98879.23
2023-04-01T06:30:58.427Z,98882.73
2023-04-01T06:33:35.692Z,98885.62
2023-04-01T06:36:21.997Z,98883.77
2023-04-01T06:39:03.830Z,98887.91
2023-04-01T06:42:09.159Z,98888.77
2023-04-01T06:45:08.682Z,98889.98
2023-04-01T06:51:58.263Z,98892.38
2023-04-01T06:54:48.194Z,98893.55
2023-04-01T06:57:42.215Z,98892.61
2023-04-01T07:00:28.938Z,98900.19
2023-04-01T07:03:17.653Z,98900.80
2023-04-01T07:05:45.141Z,98900.84
2023-04-01T07:08:17.087Z,98903.66
2023-04-01T07:11:02.917Z,98905.94
2023-04-01T07:13:45.741Z,98909.83
2023-04-01T07:16:18.132Z,98910.16
2023-04-01T07:18:54.815Z,98909.77
2023-04-01T07:21:42.436Z,98913.77
2023-04-01T07:24:22.051Z,98919.00
2023-04-01T07:26:53.743Z,98924.39
2023-04-01T07:29:20.171Z,98923.36
2023-04-01T07:31:49.681Z,98926.61
2023-04-01T07:34:31.411Z,98925.77
2023-04-01T07:37:09.565Z,98927.48
2023-04-01T07:40:12.999Z,98933.19
2023-04-01T07:43:01.561Z,98938.16
2023-04-01T07:45:52.803Z,98941.21
2023-04-01T07:49:02.061Z,98942.66
2023-04-01T07:51:37.749Z,98950.23
2023-04-01T07:54:14.106Z,98949.33
2023-04-01T07:56:59.679Z,98952.86
2023-04-01T07:59:36.521Z,98952.64
2023-04-01T08:02:23.891Z,98956.27
2023-04-01T08:05:09.292Z,98959.05
2023-04-01T08:08:11.245Z,98959.11
2023-04-01T08:10:45.340Z,98962.42
2023-04-01T08:13:14.683Z,98967.46
2023-04-01T08:15:41.703Z,98966.21
2023-04-01T08:18:28.474Z,98972.04
2023-04-01T08:21:03.589Z,98971.10
2023-04-01T08:23:47.504Z,98972.36
2023-04-01T08:26:19.201Z,98972.66
2023-04-01T08:28:56.321Z,98977.55
2023-04-01T08:31:45.888Z,98980.31
2023-04-01T08:34:27.077Z,98982.20
2023-04-01T08:37:05.677Z,98984.13
2023-04-01T08:39:37.546Z,98984.55
2023-04-01T08:42:46.225Z,98986.90
2023-04-01T08:45:37.785Z,98985.27
2023-04-01T08:48:29.200Z,98993.90
2023-04-01T08:51:33.963Z,98987.73
2023-04-01T08:54:23.647Z,98986.70
2023-04-01T08:57:09.963Z,98992.08
2023-04-01T08:59:55.258Z,98994.64
2023-04-01T09:02:47.078Z,98995.55
2023-04-01T09:05:44.380Z,98993.02
2023-04-01T09:08:35.283Z,98993.50
2023-04-01T09:11:29.518Z,98994.94
2023-04-01T09:14:18.397Z,98998.15
2023-04-01T09:17:02.954Z,98998.38
2023-04-01T09:19:35.547Z,99000.47
2023-04-01T09:22:19.089Z,99004.20
2023-04-01T09:25:24.434Z,99009.95
2023-04-01T09:28:16.101Z,99011.21
2023-04-01T09:30:48.764Z,99007.52
2023-04-01T09:33:43.114Z,99008.60
2023-04-01T09:36:21.989Z,99017.39
2023-04-01T09:39:04.633Z,99021.73
2023-04-01T09:41:40.716Z,99020.16
2023-04-01T09:44:19.846Z,99022.15
2023-04-01T09:46:58.487Z,99026.70
2023-04-01T09:49:47.202Z,99025.80
2023-04-01T09:52:38.574Z,99029.82
2023-04-01T09:55:36.253Z,99033.91
2023-04-01T09:58:21.486Z,99032.44
2023-04-01T10:01:06.513Z,99031.71
2023-04-01T10:03:38.996Z,99038.95
2023-04-01T10:06:52.105Z,99040.13
2023-04-01T10:09:53.112Z,99046.60
2023-04-01T10:12:59.685Z,99053.36
2023-04-01T10:15:46.570Z,99051.48
2023-04-01T10:18:16.132Z,99051.98
2023-04-01T10:21:01.569Z,99052.45
2023-04-01T10:23:33.855Z,99054.11
2023-04-01T10:26:25.071Z,99059.57
2023-04-01T10:29:16.734Z,99057.53
2023-04-01T10:32:08.334Z,99062.71
2023-04-01T10:35:13.105Z,99060.95
2023-04-01T10:38:16.464Z,99061.73
2023-04-01T10:41:17.490Z,99061.19
2023-04-01T10:44:12.452Z,99061.96
2023-04-01T10:47:16.379Z,99061.90
2023-04-01T10:50:08.068Z,99067.67
2023-04-01T10:52:53.159Z,99065.81
2023-04-01T10:55:46.372Z,99066.40
2023-04-01T10:58:43.790Z,99069.98
2023-04-01T11:02:11.790Z,99072.04
2023-04-01T11:05:21.194Z,99072.92
2023-04-01T11:08:05.390Z,99074.96
2023-04-01T11:11:12.788Z,99078.16
2023-04-01T11:14:05.261Z,99083.02
2023-04-01T11:17:10.432Z,99088.48
2023-04-01T11:20:14.414Z,99089.21
2023-04-01T11:22:53.171Z,99093.95
2023-04-01T11:25:26.369Z,99099.66
2023-04-01T11:28:16.984Z,99099.14
2023-04-01T11:30:46.376Z,99105.77
2023-04-01T11:33:27.644Z,99104.83
2023-04-01T11:36:24.504Z,99111.79
2023-04-01T11:39:10.558Z,99111.51
2023-04-01T11:41:53.863Z,99111.98
2023-04-01T11:44:24.670Z,99112.31
2023-04-01T11:47:28.675Z,99118.34
2023-04-01T11:50:19.687Z,99121.67
2023-04-01T11:53:06.552Z,99124.95
2023-04-01T11:55:57.334Z,99122.61
2023-04-01T11:58:45.612Z,99126.65
2023-04-01T12:01:21.296Z,99128.01
2023-04-01T12:03:47.875Z,99132.35
2023-04-01T12:06:27.177Z,99131.77
2023-04-01T12:09:13.024Z,99135.00
2023-04-01T12:11:42.472Z,99138.26
2023-04-01T12:14:28.811Z,99141.24
2023-04-01T12:17:06.410Z,99146.38
2023-04-01T12:19:54.728Z,99150.49
2023-04-01T12:22:35.600Z,99152.57
2023-04-01T12:25:39.781Z,99154.58
2023-04-01T12:28:18.671Z,99156.33
2023-04-01T12:30:52.039Z,99154.46
2023-04-01T12:33:38.443Z,99155.55
2023-04-01T12:36:19.583Z,99163.09
2023-04-01T12:39:01.383Z,99168.71
2023-04-01T12:41:40.204Z,99169.54
2023-04-01T12:44:17.033Z,99174.23
2023-04-01T12:47:18.026Z,99174.77
2023-04-01T12:49:56.543Z,99180.06
2023-04-01T12:52:35.420Z,99184.82
2023-04-01T12:55:04.741Z,99185.47
2023-04-01T12:58:00.616Z,99188.35
2023-04-01T13:01:04.355Z,99187.98
2023-04-01T13:03:33.704Z,99195.85
2023-04-01T13:06:21.052Z,99196.65
2023-04-01T13:09:00.033Z,99199.39
2023-04-01T13:11:49.561Z,99200.80
2023-04-01T13:14:41.838Z,99204.31
2023-04-01T13:17:55.587Z,99207.80
2023-04-01T13:20:35.588Z,99211.19
2023-04-01T13:23:57.111Z,99213.81
2023-04-01T13:26:31.869Z,99217.64
2023-04-01T13:29:16.080Z,99219.21
2023-04-01T13:32:08.009Z,99220.13
2023-04-01T13:34:56.493Z,99226.81
2023-04-01T13:37:51.737Z,99226.76
2023-04-01T13:41:15.721Z,99228.48
2023-04-01T13:43:52.036Z,99230.11
2023-04-01T13:46:46.282Z,99239.98
2023-04-01T13:49:34.372Z,99247.73
2023-04-01T13:52:45.807Z,99252.23
2023-04-01T13:55:21.291Z,99255.29
2023-04-01T13:58:16.019Z,99260.94
2023-04-01T14:00:56.457Z,99261.19
2023-04-01T14:03:40.067Z,99268.56
2023-04-01T14:06:28.685Z,99271.19
2023-04-01T14:09:12.665Z,99273.60
2023-04-01T14:12:05.753Z,99286.34
2023-04-01T14:14:44.605Z,99288.70
2023-04-01T14:18:02.502Z,99290.96
2023-04-01T14:20:44.157Z,99297.05
2023-04-01T14:23:38.442Z,99298.10
2023-04-01T14:26:22.619Z,99301.52
2023-04-01T14:29:14.550Z,99310.92
2023-04-01T14:32:11.870Z,99316.64
2023-04-01T14:34:54.156Z,99322.17
2023-04-01T14:37:49.795Z,99321.41
2023-04-01T14:40:21.535Z,99326.70
2023-04-01T14:43:07.406Z,99329.75
2023-04-01T14:45:34.455Z,99341.98
2023-04-01T14:48:18.816Z,99347.69
2023-04-01T14:50:52.484Z,99351.59
2023-04-01T14:53:39.880Z,99352.98
2023-04-01T14:56:07.140Z,99358.50
2023-04-01T14:58:48.647Z,99363.45
2023-04-01T15:01:43.359Z,99367.49
2023-04-01T15:04:30.594Z,99374.21
2023-04-01T15:07:19.290Z,99374.55
2023-04-01T15:09:55.898Z,99380.41
2023-04-01T15:12:45.639Z,99385.36
2023-04-01T15:15:49.737Z,99392.34
2023-04-01T15:18:41.841Z,99398.52
2023-04-01T15:21:19.830Z,99406.54
2023-04-01T15:24:09.862Z,99411.64
2023-04-01T15:27:04.249Z,99413.82
2023-04-01T15:30:05.833Z,99421.73
2023-04-01T15:32:54.832Z,99430.65
2023-04-01T15:35:43.649Z,99436.14
2023-04-01T15:38:27.786Z,99442.23
2023-04-01T15:41:14.366Z,99447.80
2023-04-01T15:43:55.082Z,99450.39
2023-04-01T15:46:47.056Z,99453.20
2023-04-01T15:49:24.116Z,99458.80
2023-04-01T15:52:04.046Z,99464.27
2023-04-01T15:54:49.840Z,99468.33
2023-04-01T15:57:23.101Z,99477.24
2023-04-01T16:00:10.819Z,99478.30
2023-04-01T16:02:52.916Z,99488.98
2023-04-01T16:05:57.184Z,99494.05
2023-04-01T16:08:42.397Z,99501.07
2023-04-01T16:11:28.491Z,99509.23
2023-04-01T16:14:03.962Z,99510.96
2023-04-01T16:16:49.221Z,99511.27
2023-04-01T16:19:24.976Z,99513.98
2023-04-01T16:22:03.366Z,99517.89
2023-04-01T16:24:56.142Z,99524.92
2023-04-01T16:27:48.510Z,99528.40
2023-04-01T16:30:37.252Z,99532.95
2023-04-01T16:33:06.438Z,99539.45
2023-04-01T16:35:47.458Z,99540.09
2023-04-01T16:38:38.781Z,99544.98
2023-04-01T16:41:31.689Z,99553.11
2023-04-01T16:44:20.509Z,99562.66
2023-04-01T16:46:57.966Z,99567.11
2023-04-01T16:49:57.626Z,99573.07
2023-04-01T16:52:48.216Z,99580.05
2023-04-01T16:55:19.032Z,99586.83
2023-04-01T16:57:56.887Z,99592.52
2023-04-01T17:00:29.871Z,99603.19
2023-04-01T17:03:05.396Z,99611.24
2023-04-01T17:06:04.294Z,99613.71
2023-04-01T17:09:18.453Z,99619.14
2023-04-01T17:12:12.566Z,99626.59
2023-04-01T17:14:47.179Z,99628.77
2023-04-01T17:17:39.785Z,99635.39
2023-04-01T17:20:17.368Z,99640.85
2023-04-01T17:22:55.633Z,99648.65
2023-04-01T17:25:48.173Z,99652.98
2023-04-01T17:28:28.566Z,99664.46
2023-04-01T17:31:21.410Z,99667.76
2023-04-01T17:33:47.924Z,99678.38
2023-04-01T17:36:22.335Z,99677.84
2023-04-01T17:39:33.462Z,99688.14
2023-04-01T17:42:10.917Z,99694.92
2023-04-01T17:45:02.443Z,99704.59
2023-04-01T17:47:39.445Z,99711.89
2023-04-01T17:50:36.748Z,99716.82
2023-04-01T17:53:21.715Z,99722.86
2023-04-01T17:55:59.719Z,99734.09
2023-04-01T17:59:12.966Z,99737.02
2023-04-01T18:02:18.032Z,99740.88
2023-04-01T18:04:56.532Z,99753.41
2023-04-01T18:08:00.603Z,99755.48
2023-04-01T18:10:50.634Z,99767.76
2023-04-01T18:13:35.884Z,99776.41
2023-04-01T18:16:21.399Z,99776.88
2023-04-01T18:18:51.358Z,99785.19
2023-04-01T18:21:43.308Z,99794.93
2023-04-01T18:24:28.886Z,99799.34
2023-04-01T18:27:05.884Z,99803.88
2023-04-01T18:29:38.914Z,99811.45
2023-04-01T18:32:27.410Z,99819.02
2023-04-01T18:35:26.495Z,99821.99
2023-04-01T18:38:04.906Z,99830.20
2023-04-01T18:40:38.604Z,99835.48
2023-04-01T18:43:28.105Z,99846.90
2023-04-01T18:46:13.427Z,99849.93
2023-04-01T18:49:14.243Z,99853.59
2023-04-01T18:52:00.426Z,99861.27
2023-04-01T18:55:08.798Z,99865.94
2023-04-01T18:57:50.489Z,99869.73
2023-04-01T19:00:27.877Z,99873.42
2023-04-01T19:03:07.692Z,99884.30
2023-04-01T19:05:39.230Z,99888.89
2023-04-01T19:08:36.977Z,99893.60
2023-04-01T19:11:36.769Z,99902.48
2023-04-01T19:14:13.628Z,99909.31
2023-04-01T19:17:10.960Z,99913.82
2023-04-01T19:19:50.145Z,99922.34
2023-04-01T19:22:57.165Z,99926.64
2023-04-01T19:25:37.929Z,99937.98
2023-04-01T19:28:27.013Z,99944.05
2023-04-01T19:31:15.817Z,99947.63
2023-04-01T19:34:02.246Z,99957.81
2023-04-01T19:36:37.497Z,99962.59
2023-04-01T19:39:41.358Z,99966.82
2023-04-01T19:42:33.641Z,99970.21
2023-04-01T19:45:15.449Z,99978.31
2023-04-01T19:48:23.873Z,99984.46
2023-04-01T19:50:58.838Z,99991.00
2023-04-01T19:53:38.407Z,99996.23
2023-04-01T19:56:18.181Z,100003.50
2023-04-01T19:58:49.161Z,100011.23
2023-04-01T20:01:46.138Z,100012.36
2023-04-01T20:04:41.148Z,100025.52
2023-04-01T20:07:30.340Z,100030.98
2023-04-01T20:10:17.921Z,100038.94
2023-04-01T20:13:06.416Z,100043.85
2023-04-01T20:15:39.513Z,100050.45
2023-04-01T20:18:27.512Z,100057.70
2023-04-01T20:20:57.400Z,100063.47
2023-04-01T20:23:43.856Z,100069.63
2023-04-01T20:26:13.858Z,100077.27
2023-04-01T20:29:12.636Z,100082.55
2023-04-01T20:32:12.015Z,100088.70
2023-04-01T20:34:44.790Z,100100.99
2023-04-01T20:37:52.156Z,100107.18
2023-04-01T20:40:44.173Z,100110.18
2023-04-01T20:43:32.210Z,100113.92
2023-04-01T20:46:05.047Z,100117.25
2023-04-01T20:48:54.110Z,100122.66
2023-04-01T20:51:41.246Z,100127.39
2023-04-01T20:54:45.761Z,100131.64
2023-04-01T20:57:17.943Z,100140.20
2023-04-01T20:59:44.694Z,100144.02
2023-04-01T21:02:35.968Z,100147.55
2023-04-01T21:05:16.911Z,100154.88
2023-04-01T21:07:59.446Z,100161.19
2023-04-01T21:10:47.885Z,100166.66
2023-04-01T21:13:47.276Z,100177.80
2023-04-01T21:16:41.610Z,100179.19
2023-04-01T21:19:27.057Z,100190.02
2023-04-01T21:22:23.367Z,100196.00
2023-04-01T21:25:22.491Z,100197.31
2023-04-01T21:28:07.686Z,100204.13
2023-04-01T21:30:44.488Z,100211.01
2023-04-01T21:33:40.499Z,100223.98
2023-04-01T21:36:19.467Z,100220.05
2023-04-01T21:39:27.968Z,100234.52
2023-04-01T21:42:13.570Z,100241.21
2023-04-01T21:44:52.984Z,100249.39
2023-04-01T21:47:47.700Z,100256.80
2023-04-01T21:50:33.496Z,100263.86
2023-04-01T21:53:24.789Z,100267.17
2023-04-01T21:55:57.517Z,100269.36
2023-04-01T21:58:45.432Z,100275.41
2023-04-01T22:01:15.024Z,100278.88
2023-04-01T22:04:06.176Z,100278.55
2023-04-01T22:06:42.079Z,100285.33
2023-04-01T22:09:19.331Z,100289.74
2023-04-01T22:12:15.999Z,100289.80
2023-04-01T22:15:02.392Z,100296.60
2023-04-01T22:17:41.315Z,100297.73
2023-04-01T22:20:33.122Z,100299.61
2023-04-01T22:23:19.030Z,100307.77
2023-04-01T22:26:03.971Z,100313.77
2023-04-01T22:28:56.148Z,100318.19
2023-04-01T22:31:38.180Z,100323.84
2023-04-01T22:34:17.045Z,100332.16
2023-04-01T22:36:53.675Z,100338.92
2023-04-01T22:39:32.017Z,100348.02
2023-04-01T22:42:11.043Z,100348.48
2023-04-01T22:44:51.622Z,100355.89
2023-04-01T22:48:02.308Z,100359.13
2023-04-01T22:50:37.904Z,100365.41
2023-04-01T22:53:19.705Z,100367.61
2023-04-01T22:55:52.972Z,100374.40
2023-04-01T22:58:29.662Z,100376.80
2023-04-01T23:01:04.831Z,100375.92
2023-04-01T23:03:34.133Z,100380.27
2023-04-01T23:06:03.403Z,100382.09
2023-04-01T23:08:45.676Z,100388.93
2023-04-01T23:11:26.736Z,100392.52
2023-04-01T23:14:32.892Z,100394.81
2023-04-01T23:17:29.486Z,100407.85
2023-04-01T23:20:11.661Z,100410.66
2023-04-01T23:23:18.722Z,100417.23
2023-04-01T23:26:01.342Z,100421.27
2023-04-01T23:28:56.213Z,100422.51
2023-04-01T23:31:36.617Z,100424.58
2023-04-01T23:34:12.721Z,100431.98
2023-04-01T23:36:49.138Z,100433.13
2023-04-01T23:39:25.203Z,100438.73
2023-04-01T23:41:55.554Z,100440.93
2023-04-01T23:44:25.141Z,100448.98
2023-04-01T23:46:53.447Z,100449.56
2023-04-01T23:49:30.094Z,100456.17
2023-04-01T23:52:04.482Z,100466.29
2023-04-01T23:54:40.992Z,100471.36
2023-04-01T23:57:14.751Z,100477.41
2023-04-01T23:59:41.720Z,100484.36
